sensor_id;sensor_type;location;lat;lon;timestamp;P1;durP1;ratioP1;P2;durP2;ratioP2
12725;SDS011;6427;49.754;6.106;2024-02-04T00:00:24;1.47;;;1.10;;
12725;SDS011;6427;49.754;6.106;2024-02-04T00:02:51;1.83;;;1.40;;
12725;SDS011;6427;49.754;6.106;2024-02-04T00:05:19;1.17;;;1.07;;
12725;SDS011;6427;49.754;6.106;2024-02-04T00:07:48;2.03;;;0.80;;
12725;SDS011;6427;49.754;6.106;2024-02-04T00:10:15;0.80;;;0.60;;
12725;SDS011;6427;49.754;6.106;2024-02-04T00:12:44;0.97;;;0.80;;
12725;SDS011;6427;49.754;6.106;2024-02-04T00:15:12;1.07;;;0.83;;
12725;SDS011;6427;49.754;6.106;2024-02-04T00:17:40;0.70;;;0.60;;
12725;SDS011;6427;49.754;6.106;2024-02-04T00:20:07;1.43;;;0.70;;
12725;SDS011;6427;49.754;6.106;2024-02-04T00:22:35;1.10;;;0.80;;
12725;SDS011;6427;49.754;6.106;2024-02-04T00:25:03;1.27;;;0.93;;
12725;SDS011;6427;49.754;6.106;2024-02-04T00:27:33;1.63;;;0.87;;
12725;SDS011;6427;49.754;6.106;2024-02-04T00:30:00;1.27;;;0.70;;
12725;SDS011;6427;49.754;6.106;2024-02-04T00:32:28;1.03;;;0.90;;
12725;SDS011;6427;49.754;6.106;2024-02-04T00:34:56;1.33;;;0.97;;
12725;SDS011;6427;49.754;6.106;2024-02-04T00:37:23;0.88;;;0.70;;
12725;SDS011;6427;49.754;6.106;2024-02-04T00:39:51;0.70;;;0.60;;
12725;SDS011;6427;49.754;6.106;2024-02-04T00:42:19;1.17;;;0.77;;
12725;SDS011;6427;49.754;6.106;2024-02-04T00:44:47;1.33;;;0.83;;
12725;SDS011;6427;49.754;6.106;2024-02-04T00:47:15;0.60;;;0.60;;
12725;SDS011;6427;49.754;6.106;2024-02-04T00:49:43;1.70;;;0.73;;
12725;SDS011;6427;49.754;6.106;2024-02-04T00:52:12;1.00;;;0.50;;
12725;SDS011;6427;49.754;6.106;2024-02-04T00:54:39;0.67;;;0.57;;
12725;SDS011;6427;49.754;6.106;2024-02-04T00:57:08;0.52;;;0.47;;
12725;SDS011;6427;49.754;6.106;2024-02-04T00:59:35;0.47;;;0.47;;
12725;SDS011;6427;49.754;6.106;2024-02-04T01:02:03;0.80;;;0.57;;
12725;SDS011;6427;49.754;6.106;2024-02-04T01:04:31;0.30;;;0.30;;
12725;SDS011;6427;49.754;6.106;2024-02-04T01:06:58;1.03;;;0.37;;
12725;SDS011;6427;49.754;6.106;2024-02-04T01:09:26;1.10;;;0.60;;
12725;SDS011;6427;49.754;6.106;2024-02-04T01:11:53;1.37;;;0.47;;
12725;SDS011;6427;49.754;6.106;2024-02-04T01:14:21;0.47;;;0.43;;
12725;SDS011;6427;49.754;6.106;2024-02-04T01:16:49;1.20;;;0.50;;
12725;SDS011;6427;49.754;6.106;2024-02-04T01:19:17;0.40;;;0.40;;
12725;SDS011;6427;49.754;6.106;2024-02-04T01:21:44;0.73;;;0.40;;
12725;SDS011;6427;49.754;6.106;2024-02-04T01:24:12;0.40;;;0.40;;
12725;SDS011;6427;49.754;6.106;2024-02-04T01:26:40;0.97;;;0.30;;
12725;SDS011;6427;49.754;6.106;2024-02-04T01:29:07;0.62;;;0.40;;
12725;SDS011;6427;49.754;6.106;2024-02-04T01:31:35;0.20;;;0.20;;
12725;SDS011;6427;49.754;6.106;2024-02-04T01:34:02;0.60;;;0.20;;
12725;SDS011;6427;49.754;6.106;2024-02-04T01:36:30;0.50;;;0.30;;
12725;SDS011;6427;49.754;6.106;2024-02-04T01:38:58;0.40;;;0.27;;
12725;SDS011;6427;49.754;6.106;2024-02-04T01:41:26;0.27;;;0.27;;
12725;SDS011;6427;49.754;6.106;2024-02-04T01:43:54;1.02;;;0.40;;
12725;SDS011;6427;49.754;6.106;2024-02-04T01:46:21;0.30;;;0.30;;
12725;SDS011;6427;49.754;6.106;2024-02-04T01:48:49;0.10;;;0.10;;
12725;SDS011;6427;49.754;6.106;2024-02-04T01:51:16;0.30;;;0.30;;
12725;SDS011;6427;49.754;6.106;2024-02-04T01:53:44;0.40;;;0.27;;
12725;SDS011;6427;49.754;6.106;2024-02-04T01:56:11;0.77;;;0.20;;
12725;SDS011;6427;49.754;6.106;2024-02-04T01:58:39;0.70;;;0.30;;
12725;SDS011;6427;49.754;6.106;2024-02-04T02:01:07;0.20;;;0.20;;
12725;SDS011;6427;49.754;6.106;2024-02-04T02:03:34;0.43;;;0.33;;
12725;SDS011;6427;49.754;6.106;2024-02-04T02:06:02;0.50;;;0.35;;
12725;SDS011;6427;49.754;6.106;2024-02-04T02:08:29;0.50;;;0.37;;
12725;SDS011;6427;49.754;6.106;2024-02-04T02:11:02;0.30;;;0.30;;
12725;SDS011;6427;49.754;6.106;2024-02-04T02:13:27;0.37;;;0.30;;
12725;SDS011;6427;49.754;6.106;2024-02-04T02:15:54;0.20;;;0.20;;
12725;SDS011;6427;49.754;6.106;2024-02-04T02:18:29;0.40;;;0.40;;
12725;SDS011;6427;49.754;6.106;2024-02-04T02:21:44;0.90;;;0.40;;
12725;SDS011;6427;49.754;6.106;2024-02-04T02:23:40;0.40;;;0.40;;
12725;SDS011;6427;49.754;6.106;2024-02-04T02:26:08;0.90;;;0.30;;
12725;SDS011;6427;49.754;6.106;2024-02-04T02:28:35;0.40;;;0.30;;
12725;SDS011;6427;49.754;6.106;2024-02-04T02:31:04;1.43;;;0.30;;
12725;SDS011;6427;49.754;6.106;2024-02-04T02:33:31;1.63;;;0.40;;
12725;SDS011;6427;49.754;6.106;2024-02-04T02:35:59;1.40;;;0.57;;
12725;SDS011;6427;49.754;6.106;2024-02-04T02:38:29;0.37;;;0.33;;
12725;SDS011;6427;49.754;6.106;2024-02-04T02:40:58;0.70;;;0.30;;
12725;SDS011;6427;49.754;6.106;2024-02-04T02:43:22;0.40;;;0.40;;
12725;SDS011;6427;49.754;6.106;2024-02-04T02:45:50;1.37;;;0.40;;
12725;SDS011;6427;49.754;6.106;2024-02-04T02:48:18;1.45;;;0.57;;
12725;SDS011;6427;49.754;6.106;2024-02-04T02:50:45;0.70;;;0.40;;
12725;SDS011;6427;49.754;6.106;2024-02-04T02:53:13;0.50;;;0.40;;
12725;SDS011;6427;49.754;6.106;2024-02-04T02:55:41;1.67;;;0.50;;
12725;SDS011;6427;49.754;6.106;2024-02-04T02:58:09;1.03;;;0.40;;
12725;SDS011;6427;49.754;6.106;2024-02-04T03:00:36;0.88;;;0.40;;
12725;SDS011;6427;49.754;6.106;2024-02-04T03:03:04;1.00;;;0.50;;
12725;SDS011;6427;49.754;6.106;2024-02-04T03:05:31;0.40;;;0.40;;
12725;SDS011;6427;49.754;6.106;2024-02-04T03:08:00;0.47;;;0.20;;
12725;SDS011;6427;49.754;6.106;2024-02-04T03:10:28;2.07;;;0.30;;
12725;SDS011;6427;49.754;6.106;2024-02-04T03:12:56;0.70;;;0.30;;
12725;SDS011;6427;49.754;6.106;2024-02-04T03:15:24;0.40;;;0.30;;
12725;SDS011;6427;49.754;6.106;2024-02-04T03:17:53;1.27;;;0.33;;
12725;SDS011;6427;49.754;6.106;2024-02-04T03:20:20;0.43;;;0.30;;
12725;SDS011;6427;49.754;6.106;2024-02-04T03:22:48;0.50;;;0.40;;
12725;SDS011;6427;49.754;6.106;2024-02-04T03:25:15;0.70;;;0.50;;
12725;SDS011;6427;49.754;6.106;2024-02-04T03:27:43;1.27;;;0.30;;
12725;SDS011;6427;49.754;6.106;2024-02-04T03:30:10;0.57;;;0.55;;
12725;SDS011;6427;49.754;6.106;2024-02-04T03:32:38;0.40;;;0.40;;
12725;SDS011;6427;49.754;6.106;2024-02-04T03:35:06;0.30;;;0.30;;
12725;SDS011;6427;49.754;6.106;2024-02-04T03:37:34;1.23;;;0.40;;
12725;SDS011;6427;49.754;6.106;2024-02-04T03:40:02;0.30;;;0.30;;
12725;SDS011;6427;49.754;6.106;2024-02-04T03:42:29;0.30;;;0.30;;
12725;SDS011;6427;49.754;6.106;2024-02-04T03:44:57;0.30;;;0.30;;
12725;SDS011;6427;49.754;6.106;2024-02-04T03:47:25;1.03;;;0.40;;
12725;SDS011;6427;49.754;6.106;2024-02-04T03:49:53;0.50;;;0.33;;
12725;SDS011;6427;49.754;6.106;2024-02-04T03:52:20;0.33;;;0.33;;
12725;SDS011;6427;49.754;6.106;2024-02-04T03:54:48;0.40;;;0.30;;
12725;SDS011;6427;49.754;6.106;2024-02-04T03:57:16;0.33;;;0.30;;
12725;SDS011;6427;49.754;6.106;2024-02-04T03:59:44;0.50;;;0.40;;
12725;SDS011;6427;49.754;6.106;2024-02-04T04:02:12;0.20;;;0.20;;
12725;SDS011;6427;49.754;6.106;2024-02-04T04:04:40;0.27;;;0.27;;
12725;SDS011;6427;49.754;6.106;2024-02-04T04:07:07;0.88;;;0.30;;
12725;SDS011;6427;49.754;6.106;2024-02-04T04:09:35;2.10;;;0.30;;
12725;SDS011;6427;49.754;6.106;2024-02-04T04:12:03;1.10;;;0.33;;
12725;SDS011;6427;49.754;6.106;2024-02-04T04:14:30;0.50;;;0.30;;
12725;SDS011;6427;49.754;6.106;2024-02-04T04:16:58;1.53;;;0.47;;
12725;SDS011;6427;49.754;6.106;2024-02-04T04:19:26;0.30;;;0.30;;
12725;SDS011;6427;49.754;6.106;2024-02-04T04:21:54;1.60;;;0.20;;
12725;SDS011;6427;49.754;6.106;2024-02-04T04:24:21;0.20;;;0.20;;
12725;SDS011;6427;49.754;6.106;2024-02-04T04:26:49;0.50;;;0.10;;
12725;SDS011;6427;49.754;6.106;2024-02-04T04:29:17;1.40;;;0.23;;
12725;SDS011;6427;49.754;6.106;2024-02-04T04:31:45;0.20;;;0.20;;
12725;SDS011;6427;49.754;6.106;2024-02-04T04:34:13;0.73;;;0.30;;
12725;SDS011;6427;49.754;6.106;2024-02-04T04:36:41;0.50;;;0.40;;
12725;SDS011;6427;49.754;6.106;2024-02-04T04:39:09;1.10;;;0.40;;
12725;SDS011;6427;49.754;6.106;2024-02-04T04:41:38;1.30;;;0.30;;
12725;SDS011;6427;49.754;6.106;2024-02-04T04:44:05;0.20;;;0.20;;
12725;SDS011;6427;49.754;6.106;2024-02-04T04:46:33;0.30;;;0.20;;
12725;SDS011;6427;49.754;6.106;2024-02-04T04:49:01;1.33;;;0.30;;
12725;SDS011;6427;49.754;6.106;2024-02-04T04:51:29;0.87;;;0.30;;
12725;SDS011;6427;49.754;6.106;2024-02-04T04:53:56;0.43;;;0.30;;
12725;SDS011;6427;49.754;6.106;2024-02-04T04:56:24;1.07;;;0.30;;
12725;SDS011;6427;49.754;6.106;2024-02-04T04:58:51;0.50;;;0.50;;
12725;SDS011;6427;49.754;6.106;2024-02-04T05:01:20;1.53;;;0.37;;
12725;SDS011;6427;49.754;6.106;2024-02-04T05:03:47;0.37;;;0.30;;
12725;SDS011;6427;49.754;6.106;2024-02-04T05:06:16;0.40;;;0.40;;
12725;SDS011;6427;49.754;6.106;2024-02-04T05:08:44;0.40;;;0.40;;
12725;SDS011;6427;49.754;6.106;2024-02-04T05:11:12;1.00;;;0.40;;
12725;SDS011;6427;49.754;6.106;2024-02-04T05:13:40;0.73;;;0.57;;
12725;SDS011;6427;49.754;6.106;2024-02-04T05:16:08;0.50;;;0.50;;
12725;SDS011;6427;49.754;6.106;2024-02-04T05:18:35;0.43;;;0.43;;
12725;SDS011;6427;49.754;6.106;2024-02-04T05:21:03;1.33;;;0.33;;
12725;SDS011;6427;49.754;6.106;2024-02-04T05:23:30;0.40;;;0.40;;
12725;SDS011;6427;49.754;6.106;2024-02-04T05:26:02;0.73;;;0.53;;
12725;SDS011;6427;49.754;6.106;2024-02-04T05:28:26;0.50;;;0.50;;
12725;SDS011;6427;49.754;6.106;2024-02-04T05:30:55;2.43;;;0.57;;
12725;SDS011;6427;49.754;6.106;2024-02-04T05:33:22;0.77;;;0.57;;
12725;SDS011;6427;49.754;6.106;2024-02-04T05:35:51;0.90;;;0.60;;
12725;SDS011;6427;49.754;6.106;2024-02-04T05:38:18;0.70;;;0.60;;
12725;SDS011;6427;49.754;6.106;2024-02-04T05:40:47;0.50;;;0.50;;
12725;SDS011;6427;49.754;6.106;2024-02-04T05:43:14;1.23;;;0.70;;
12725;SDS011;6427;49.754;6.106;2024-02-04T05:45:42;0.70;;;0.70;;
12725;SDS011;6427;49.754;6.106;2024-02-04T05:48:10;0.60;;;0.60;;
12725;SDS011;6427;49.754;6.106;2024-02-04T05:50:37;0.60;;;0.60;;
12725;SDS011;6427;49.754;6.106;2024-02-04T05:53:05;0.77;;;0.70;;
12725;SDS011;6427;49.754;6.106;2024-02-04T05:55:33;0.73;;;0.70;;
12725;SDS011;6427;49.754;6.106;2024-02-04T05:58:00;0.50;;;0.50;;
12725;SDS011;6427;49.754;6.106;2024-02-04T06:00:27;1.90;;;1.02;;
12725;SDS011;6427;49.754;6.106;2024-02-04T06:02:55;1.47;;;0.90;;
12725;SDS011;6427;49.754;6.106;2024-02-04T06:05:22;1.17;;;0.70;;
12725;SDS011;6427;49.754;6.106;2024-02-04T06:07:50;1.33;;;0.73;;
12725;SDS011;6427;49.754;6.106;2024-02-04T06:10:18;1.10;;;0.77;;
12725;SDS011;6427;49.754;6.106;2024-02-04T06:12:45;2.10;;;1.00;;
12725;SDS011;6427;49.754;6.106;2024-02-04T06:15:14;1.30;;;0.80;;
12725;SDS011;6427;49.754;6.106;2024-02-04T06:17:41;2.27;;;0.80;;
12725;SDS011;6427;49.754;6.106;2024-02-04T06:20:09;1.23;;;1.05;;
12725;SDS011;6427;49.754;6.106;2024-02-04T06:22:37;0.70;;;0.70;;
12725;SDS011;6427;49.754;6.106;2024-02-04T06:25:04;1.63;;;0.90;;
12725;SDS011;6427;49.754;6.106;2024-02-04T06:27:32;0.87;;;0.87;;
12725;SDS011;6427;49.754;6.106;2024-02-04T06:29:59;0.77;;;0.73;;
12725;SDS011;6427;49.754;6.106;2024-02-04T06:32:28;1.77;;;0.70;;
12725;SDS011;6427;49.754;6.106;2024-02-04T06:34:56;1.07;;;0.90;;
12725;SDS011;6427;49.754;6.106;2024-02-04T06:37:23;2.50;;;0.93;;
12725;SDS011;6427;49.754;6.106;2024-02-04T06:39:51;2.37;;;1.00;;
12725;SDS011;6427;49.754;6.106;2024-02-04T06:42:18;0.90;;;0.80;;
12725;SDS011;6427;49.754;6.106;2024-02-04T06:44:47;0.97;;;0.77;;
12725;SDS011;6427;49.754;6.106;2024-02-04T06:47:14;1.10;;;0.70;;
12725;SDS011;6427;49.754;6.106;2024-02-04T06:49:45;1.50;;;0.88;;
12725;SDS011;6427;49.754;6.106;2024-02-04T06:52:13;0.70;;;0.70;;
12725;SDS011;6427;49.754;6.106;2024-02-04T06:54:40;1.10;;;0.80;;
12725;SDS011;6427;49.754;6.106;2024-02-04T06:57:08;1.80;;;0.60;;
12725;SDS011;6427;49.754;6.106;2024-02-04T06:59:36;0.60;;;0.60;;
12725;SDS011;6427;49.754;6.106;2024-02-04T07:02:04;1.77;;;0.80;;
12725;SDS011;6427;49.754;6.106;2024-02-04T07:04:32;0.73;;;0.70;;
12725;SDS011;6427;49.754;6.106;2024-02-04T07:07:00;0.80;;;0.70;;
12725;SDS011;6427;49.754;6.106;2024-02-04T07:09:28;2.00;;;1.10;;
12725;SDS011;6427;49.754;6.106;2024-02-04T07:11:55;0.60;;;0.60;;
12725;SDS011;6427;49.754;6.106;2024-02-04T07:14:23;0.93;;;0.73;;
12725;SDS011;6427;49.754;6.106;2024-02-04T07:16:51;1.73;;;0.73;;
12725;SDS011;6427;49.754;6.106;2024-02-04T07:19:19;0.80;;;0.67;;
12725;SDS011;6427;49.754;6.106;2024-02-04T07:21:46;1.45;;;0.95;;
12725;SDS011;6427;49.754;6.106;2024-02-04T07:24:14;1.87;;;0.93;;
12725;SDS011;6427;49.754;6.106;2024-02-04T07:26:41;1.70;;;1.10;;
12725;SDS011;6427;49.754;6.106;2024-02-04T07:29:09;2.27;;;1.20;;
12725;SDS011;6427;49.754;6.106;2024-02-04T07:31:37;2.23;;;1.03;;
12725;SDS011;6427;49.754;6.106;2024-02-04T07:34:04;1.20;;;1.10;;
12725;SDS011;6427;49.754;6.106;2024-02-04T07:36:32;1.37;;;0.93;;
12725;SDS011;6427;49.754;6.106;2024-02-04T07:38:59;3.05;;;1.67;;
12725;SDS011;6427;49.754;6.106;2024-02-04T07:41:28;1.53;;;1.30;;
12725;SDS011;6427;49.754;6.106;2024-02-04T07:43:55;2.23;;;1.70;;
12725;SDS011;6427;49.754;6.106;2024-02-04T07:46:23;2.23;;;1.50;;
12725;SDS011;6427;49.754;6.106;2024-02-04T07:48:50;2.63;;;1.73;;
12725;SDS011;6427;49.754;6.106;2024-02-04T07:51:18;4.10;;;2.33;;
12725;SDS011;6427;49.754;6.106;2024-02-04T07:53:46;3.80;;;1.90;;
12725;SDS011;6427;49.754;6.106;2024-02-04T07:56:13;1.60;;;1.50;;
12725;SDS011;6427;49.754;6.106;2024-02-04T07:58:42;2.10;;;1.53;;
12725;SDS011;6427;49.754;6.106;2024-02-04T08:01:09;2.37;;;1.47;;
12725;SDS011;6427;49.754;6.106;2024-02-04T08:03:38;2.57;;;1.27;;
12725;SDS011;6427;49.754;6.106;2024-02-04T08:06:06;1.60;;;1.50;;
12725;SDS011;6427;49.754;6.106;2024-02-04T08:08:33;2.20;;;1.33;;
12725;SDS011;6427;49.754;6.106;2024-02-04T08:11:01;2.65;;;1.70;;
12725;SDS011;6427;49.754;6.106;2024-02-04T08:13:29;1.40;;;1.30;;
12725;SDS011;6427;49.754;6.106;2024-02-04T08:15:56;2.40;;;1.33;;
12725;SDS011;6427;49.754;6.106;2024-02-04T08:18:25;1.67;;;1.35;;
12725;SDS011;6427;49.754;6.106;2024-02-04T08:20:53;1.10;;;1.00;;
12725;SDS011;6427;49.754;6.106;2024-02-04T08:23:21;1.73;;;1.00;;
12725;SDS011;6427;49.754;6.106;2024-02-04T08:25:49;0.93;;;0.93;;
12725;SDS011;6427;49.754;6.106;2024-02-04T08:28:17;1.20;;;1.00;;
12725;SDS011;6427;49.754;6.106;2024-02-04T08:30:44;1.37;;;1.07;;
12725;SDS011;6427;49.754;6.106;2024-02-04T08:33:12;1.17;;;0.90;;
12725;SDS011;6427;49.754;6.106;2024-02-04T08:35:40;1.70;;;1.33;;
12725;SDS011;6427;49.754;6.106;2024-02-04T08:38:08;1.20;;;1.10;;
12725;SDS011;6427;49.754;6.106;2024-02-04T08:40:36;1.58;;;1.33;;
12725;SDS011;6427;49.754;6.106;2024-02-04T08:43:04;1.13;;;1.03;;
12725;SDS011;6427;49.754;6.106;2024-02-04T08:45:31;0.80;;;0.80;;
12725;SDS011;6427;49.754;6.106;2024-02-04T08:47:59;1.00;;;0.90;;
12725;SDS011;6427;49.754;6.106;2024-02-04T08:50:27;1.67;;;1.23;;
12725;SDS011;6427;49.754;6.106;2024-02-04T08:52:55;0.90;;;0.90;;
12725;SDS011;6427;49.754;6.106;2024-02-04T08:55:22;0.77;;;0.77;;
12725;SDS011;6427;49.754;6.106;2024-02-04T08:57:50;2.77;;;0.83;;
12725;SDS011;6427;49.754;6.106;2024-02-04T09:00:18;1.13;;;0.60;;
12725;SDS011;6427;49.754;6.106;2024-02-04T09:02:45;1.03;;;0.70;;
12725;SDS011;6427;49.754;6.106;2024-02-04T09:05:15;0.90;;;0.60;;
12725;SDS011;6427;49.754;6.106;2024-02-04T09:07:44;0.70;;;0.43;;
12725;SDS011;6427;49.754;6.106;2024-02-04T09:10:12;0.70;;;0.60;;
12725;SDS011;6427;49.754;6.106;2024-02-04T09:12:40;0.90;;;0.60;;
12725;SDS011;6427;49.754;6.106;2024-02-04T09:15:08;0.93;;;0.60;;
12725;SDS011;6427;49.754;6.106;2024-02-04T09:17:36;0.50;;;0.50;;
12725;SDS011;6427;49.754;6.106;2024-02-04T09:20:04;0.60;;;0.50;;
12725;SDS011;6427;49.754;6.106;2024-02-04T09:22:31;1.17;;;0.87;;
12725;SDS011;6427;49.754;6.106;2024-02-04T09:24:59;1.30;;;0.67;;
12725;SDS011;6427;49.754;6.106;2024-02-04T09:27:28;0.93;;;0.57;;
12725;SDS011;6427;49.754;6.106;2024-02-04T09:29:55;0.90;;;0.70;;
12725;SDS011;6427;49.754;6.106;2024-02-04T09:32:23;0.60;;;0.60;;
12725;SDS011;6427;49.754;6.106;2024-02-04T09:34:50;0.70;;;0.60;;
12725;SDS011;6427;49.754;6.106;2024-02-04T09:37:18;1.00;;;0.80;;
12725;SDS011;6427;49.754;6.106;2024-02-04T09:39:46;0.88;;;0.80;;
12725;SDS011;6427;49.754;6.106;2024-02-04T09:42:17;1.27;;;0.80;;
12725;SDS011;6427;49.754;6.106;2024-02-04T09:44:41;0.93;;;0.77;;
12725;SDS011;6427;49.754;6.106;2024-02-04T09:47:09;1.08;;;0.90;;
12725;SDS011;6427;49.754;6.106;2024-02-04T09:49:38;1.23;;;0.90;;
12725;SDS011;6427;49.754;6.106;2024-02-04T09:52:08;0.80;;;0.60;;
12725;SDS011;6427;49.754;6.106;2024-02-04T09:54:48;1.20;;;1.03;;
12725;SDS011;6427;49.754;6.106;2024-02-04T09:57:14;2.63;;;1.23;;
12725;SDS011;6427;49.754;6.106;2024-02-04T09:59:45;0.77;;;0.70;;
12725;SDS011;6427;49.754;6.106;2024-02-04T10:02:13;2.03;;;1.83;;
12725;SDS011;6427;49.754;6.106;2024-02-04T10:04:41;2.20;;;1.20;;
12725;SDS011;6427;49.754;6.106;2024-02-04T10:07:09;0.70;;;0.70;;
12725;SDS011;6427;49.754;6.106;2024-02-04T10:09:36;0.87;;;0.70;;
12725;SDS011;6427;49.754;6.106;2024-02-04T10:12:04;10.83;;;6.40;;
12725;SDS011;6427;49.754;6.106;2024-02-04T10:14:32;6.67;;;4.53;;
12725;SDS011;6427;49.754;6.106;2024-02-04T10:17:00;3.53;;;2.70;;
12725;SDS011;6427;49.754;6.106;2024-02-04T10:19:28;0.95;;;0.80;;
12725;SDS011;6427;49.754;6.106;2024-02-04T10:22:02;6.67;;;2.83;;
12725;SDS011;6427;49.754;6.106;2024-02-04T10:24:29;11.17;;;5.80;;
12725;SDS011;6427;49.754;6.106;2024-02-04T10:26:57;8.73;;;5.50;;
12725;SDS011;6427;49.754;6.106;2024-02-04T10:29:25;2.43;;;1.47;;
12725;SDS011;6427;49.754;6.106;2024-02-04T10:31:56;1.47;;;0.57;;
12725;SDS011;6427;49.754;6.106;2024-02-04T10:34:25;2.70;;;0.80;;
12725;SDS011;6427;49.754;6.106;2024-02-04T10:36:55;2.83;;;1.70;;
12725;SDS011;6427;49.754;6.106;2024-02-04T10:39:22;1.47;;;0.87;;
12725;SDS011;6427;49.754;6.106;2024-02-04T10:41:50;5.70;;;2.65;;
12725;SDS011;6427;49.754;6.106;2024-02-04T10:44:18;1.57;;;1.20;;
12725;SDS011;6427;49.754;6.106;2024-02-04T10:46:46;2.27;;;0.90;;
12725;SDS011;6427;49.754;6.106;2024-02-04T10:49:14;1.80;;;1.10;;
12725;SDS011;6427;49.754;6.106;2024-02-04T10:51:42;0.83;;;0.67;;
12725;SDS011;6427;49.754;6.106;2024-02-04T10:54:11;1.08;;;0.60;;
12725;SDS011;6427;49.754;6.106;2024-02-04T10:56:41;2.00;;;1.00;;
12725;SDS011;6427;49.754;6.106;2024-02-04T10:59:13;0.67;;;0.40;;
12725;SDS011;6427;49.754;6.106;2024-02-04T11:01:39;0.97;;;0.50;;
12725;SDS011;6427;49.754;6.106;2024-02-04T11:04:08;1.33;;;0.70;;
12725;SDS011;6427;49.754;6.106;2024-02-04T11:06:34;0.73;;;0.60;;
12725;SDS011;6427;49.754;6.106;2024-02-04T11:09:02;0.80;;;0.50;;
12725;SDS011;6427;49.754;6.106;2024-02-04T11:11:31;0.80;;;0.50;;
12725;SDS011;6427;49.754;6.106;2024-02-04T11:13:59;0.53;;;0.40;;
12725;SDS011;6427;49.754;6.106;2024-02-04T11:24:49;0.67;;;0.40;;
12725;SDS011;6427;49.754;6.106;2024-02-04T11:27:20;0.40;;;0.40;;
12725;SDS011;6427;49.754;6.106;2024-02-04T11:30:01;1.33;;;0.50;;
12725;SDS011;6427;49.754;6.106;2024-02-04T11:32:28;0.53;;;0.40;;
12725;SDS011;6427;49.754;6.106;2024-02-04T11:34:56;0.40;;;0.40;;
12725;SDS011;6427;49.754;6.106;2024-02-04T11:37:23;0.37;;;0.37;;
12725;SDS011;6427;49.754;6.106;2024-02-04T11:39:51;0.32;;;0.20;;
12725;SDS011;6427;49.754;6.106;2024-02-04T11:42:19;0.30;;;0.30;;
12725;SDS011;6427;49.754;6.106;2024-02-04T11:44:46;3.20;;;1.30;;
12725;SDS011;6427;49.754;6.106;2024-02-04T11:47:23;1.30;;;0.30;;
12725;SDS011;6427;49.754;6.106;2024-02-04T11:49:58;1.23;;;0.20;;
12725;SDS011;6427;49.754;6.106;2024-02-04T11:52:21;0.87;;;0.40;;
12725;SDS011;6427;49.754;6.106;2024-02-04T11:54:49;0.40;;;0.40;;
12725;SDS011;6427;49.754;6.106;2024-02-04T11:57:17;0.20;;;0.20;;
12725;SDS011;6427;49.754;6.106;2024-02-04T11:59:45;0.20;;;0.20;;
12725;SDS011;6427;49.754;6.106;2024-02-04T12:02:15;0.30;;;0.23;;
12725;SDS011;6427;49.754;6.106;2024-02-04T12:04:40;0.20;;;0.13;;
12725;SDS011;6427;49.754;6.106;2024-02-04T12:07:10;1.10;;;0.50;;
12725;SDS011;6427;49.754;6.106;2024-02-04T12:09:38;0.17;;;0.10;;
12725;SDS011;6427;49.754;6.106;2024-02-04T12:12:06;0.30;;;0.10;;
12725;SDS011;6427;49.754;6.106;2024-02-04T12:14:34;1.10;;;0.20;;
12725;SDS011;6427;49.754;6.106;2024-02-04T12:17:10;0.10;;;0.10;;
12725;SDS011;6427;49.754;6.106;2024-02-04T12:19:36;0.10;;;0.10;;
12725;SDS011;6427;49.754;6.106;2024-02-04T12:22:04;0.60;;;0.50;;
12725;SDS011;6427;49.754;6.106;2024-02-04T12:24:31;0.93;;;0.30;;
12725;SDS011;6427;49.754;6.106;2024-02-04T12:26:59;0.75;;;0.22;;
12725;SDS011;6427;49.754;6.106;2024-02-04T12:29:28;0.50;;;0.50;;
12725;SDS011;6427;49.754;6.106;2024-02-04T12:31:59;0.90;;;0.50;;
12725;SDS011;6427;49.754;6.106;2024-02-04T12:34:26;0.97;;;0.57;;
12725;SDS011;6427;49.754;6.106;2024-02-04T12:37:00;0.32;;;0.30;;
12725;SDS011;6427;49.754;6.106;2024-02-04T12:39:29;0.60;;;0.20;;
12725;SDS011;6427;49.754;6.106;2024-02-04T12:41:57;2.33;;;0.50;;
12725;SDS011;6427;49.754;6.106;2024-02-04T12:44:25;0.30;;;0.20;;
12725;SDS011;6427;49.754;6.106;2024-02-04T12:46:53;0.53;;;0.37;;
12725;SDS011;6427;49.754;6.106;2024-02-04T12:49:20;1.13;;;0.50;;
12725;SDS011;6427;49.754;6.106;2024-02-04T12:51:51;0.40;;;0.20;;
12725;SDS011;6427;49.754;6.106;2024-02-04T12:54:21;0.45;;;0.30;;
12725;SDS011;6427;49.754;6.106;2024-02-04T12:56:49;0.33;;;0.30;;
12725;SDS011;6427;49.754;6.106;2024-02-04T12:59:32;0.97;;;0.30;;
12725;SDS011;6427;49.754;6.106;2024-02-04T13:02:00;2.03;;;0.40;;
12725;SDS011;6427;49.754;6.106;2024-02-04T13:04:39;0.20;;;0.20;;
12725;SDS011;6427;49.754;6.106;2024-02-04T13:07:09;0.33;;;0.23;;
12725;SDS011;6427;49.754;6.106;2024-02-04T13:09:37;0.50;;;0.20;;
12725;SDS011;6427;49.754;6.106;2024-02-04T13:12:04;0.10;;;0.10;;
12725;SDS011;6427;49.754;6.106;2024-02-04T13:14:32;0.37;;;0.20;;
12725;SDS011;6427;49.754;6.106;2024-02-04T13:16:59;1.80;;;0.23;;
12725;SDS011;6427;49.754;6.106;2024-02-04T13:19:34;0.10;;;0.10;;
12725;SDS011;6427;49.754;6.106;2024-02-04T13:22:01;0.30;;;0.20;;
12725;SDS011;6427;49.754;6.106;2024-02-04T13:24:29;0.47;;;0.30;;
12725;SDS011;6427;49.754;6.106;2024-02-04T13:26:56;0.90;;;0.10;;
12725;SDS011;6427;49.754;6.106;2024-02-04T13:29:24;0.50;;;0.30;;
12725;SDS011;6427;49.754;6.106;2024-02-04T13:31:51;0.20;;;0.20;;
12725;SDS011;6427;49.754;6.106;2024-02-04T13:34:19;0.50;;;0.20;;
12725;SDS011;6427;49.754;6.106;2024-02-04T13:36:47;0.20;;;0.20;;
12725;SDS011;6427;49.754;6.106;2024-02-04T13:39:15;0.10;;;0.10;;
12725;SDS011;6427;49.754;6.106;2024-02-04T13:41:42;0.10;;;0.10;;
12725;SDS011;6427;49.754;6.106;2024-02-04T13:44:10;0.53;;;0.30;;
12725;SDS011;6427;49.754;6.106;2024-02-04T13:46:38;0.30;;;0.23;;
12725;SDS011;6427;49.754;6.106;2024-02-04T13:49:05;0.20;;;0.20;;
12725;SDS011;6427;49.754;6.106;2024-02-04T13:51:33;0.50;;;0.40;;
12725;SDS011;6427;49.754;6.106;2024-02-04T13:54:01;0.20;;;0.20;;
12725;SDS011;6427;49.754;6.106;2024-02-04T13:56:29;0.50;;;0.50;;
12725;SDS011;6427;49.754;6.106;2024-02-04T13:58:56;0.50;;;0.50;;
12725;SDS011;6427;49.754;6.106;2024-02-04T14:01:24;1.70;;;0.53;;
12725;SDS011;6427;49.754;6.106;2024-02-04T14:03:51;1.00;;;0.70;;
12725;SDS011;6427;49.754;6.106;2024-02-04T14:06:20;0.52;;;0.50;;
12725;SDS011;6427;49.754;6.106;2024-02-04T14:08:47;0.53;;;0.30;;
12725;SDS011;6427;49.754;6.106;2024-02-04T14:11:15;0.67;;;0.20;;
12725;SDS011;6427;49.754;6.106;2024-02-04T14:13:43;0.20;;;0.20;;
12725;SDS011;6427;49.754;6.106;2024-02-04T14:16:10;1.30;;;0.60;;
12725;SDS011;6427;49.754;6.106;2024-02-04T14:18:38;2.97;;;1.80;;
12725;SDS011;6427;49.754;6.106;2024-02-04T14:21:05;0.30;;;0.30;;
12725;SDS011;6427;49.754;6.106;2024-02-04T14:23:34;1.40;;;0.30;;
12725;SDS011;6427;49.754;6.106;2024-02-04T14:26:01;1.63;;;0.70;;
12725;SDS011;6427;49.754;6.106;2024-02-04T14:28:29;0.60;;;0.30;;
12725;SDS011;6427;49.754;6.106;2024-02-04T14:30:57;0.13;;;0.10;;
12725;SDS011;6427;49.754;6.106;2024-02-04T14:33:24;0.22;;;0.20;;
12725;SDS011;6427;49.754;6.106;2024-02-04T14:35:52;1.03;;;0.30;;
12725;SDS011;6427;49.754;6.106;2024-02-04T14:38:20;0.20;;;0.20;;
12725;SDS011;6427;49.754;6.106;2024-02-04T14:40:48;1.47;;;0.60;;
12725;SDS011;6427;49.754;6.106;2024-02-04T14:43:15;0.87;;;0.40;;
12725;SDS011;6427;49.754;6.106;2024-02-04T14:45:43;1.97;;;1.10;;
12725;SDS011;6427;49.754;6.106;2024-02-04T14:48:10;0.90;;;0.40;;
12725;SDS011;6427;49.754;6.106;2024-02-04T14:50:38;2.30;;;0.90;;
12725;SDS011;6427;49.754;6.106;2024-02-04T14:53:06;0.50;;;0.20;;
12725;SDS011;6427;49.754;6.106;2024-02-04T14:55:34;0.20;;;0.20;;
12725;SDS011;6427;49.754;6.106;2024-02-04T14:58:02;1.87;;;0.70;;
12725;SDS011;6427;49.754;6.106;2024-02-04T15:00:31;0.47;;;0.30;;
12725;SDS011;6427;49.754;6.106;2024-02-04T15:02:58;0.57;;;0.30;;
12725;SDS011;6427;49.754;6.106;2024-02-04T15:05:29;0.40;;;0.30;;
12725;SDS011;6427;49.754;6.106;2024-02-04T15:07:57;0.37;;;0.20;;
12725;SDS011;6427;49.754;6.106;2024-02-04T15:10:25;0.93;;;0.30;;
12725;SDS011;6427;49.754;6.106;2024-02-04T15:12:52;0.20;;;0.20;;